<?xml version="1.0" encoding="UTF-8" ?>
<gpx version="1.1" creator="CartoExploreur 3D 1.15" xmlns:xsi="http://www.w3.org/2001/XMLSchema-instance" xmlns="http://www.topografix.com/GPX/1/1" xsi:schemaLocation="http://www.topografix.com/GPX/1/1 http://www.topografix.com/GPX/1/1/gpx.xsd">
    <metadata>
        <time>2013-04-25T21:17:33Z</time>
        <bounds maxlat="47.354618546" maxlon="3.752887529" minlat="47.312948129" minlon="3.723622236" />
    </metadata>
    <trk>
        <name>25-04-2013 09-55-58</name>
        <trkseg>
            <trkpt lat="47.313053131" lon="3.739957400">
                <ele>250.000000</ele>
                <time>2013-04-25T09:56:01Z</time>
            </trkpt>
            <trkpt lat="47.313158132" lon="3.740092401">
                <ele>258.000000</ele>
                <time>2013-04-25T10:07:06Z</time>
            </trkpt>
            <trkpt lat="47.313263133" lon="3.740212402">
                <ele>257.000000</ele>
                <time>2013-04-25T10:07:09Z</time>
            </trkpt>
            <trkpt lat="47.314028140" lon="3.741007410">
                <ele>249.000000</ele>
                <time>2013-04-25T10:07:26Z</time>
            </trkpt>
            <trkpt lat="47.314508145" lon="3.741517415">
                <ele>249.000000</ele>
                <time>2013-04-25T10:07:34Z</time>
            </trkpt>
            <trkpt lat="47.314643146" lon="3.741622416">
                <ele>250.000000</ele>
                <time>2013-04-25T10:07:36Z</time>
            </trkpt>
            <trkpt lat="47.314838148" lon="3.741742417">
                <ele>251.000000</ele>
                <time>2013-04-25T10:07:39Z</time>
            </trkpt>
            <trkpt lat="47.315003150" lon="3.741877419">
                <ele>253.000000</ele>
                <time>2013-04-25T10:07:42Z</time>
            </trkpt>
            <trkpt lat="47.315153152" lon="3.741967420">
                <ele>253.000000</ele>
                <time>2013-04-25T10:07:46Z</time>
            </trkpt>
            <trkpt lat="47.315318153" lon="3.742072421">
                <ele>254.000000</ele>
                <time>2013-04-25T10:07:49Z</time>
            </trkpt>
            <trkpt lat="47.315438154" lon="3.742192422">
                <ele>256.000000</ele>
                <time>2013-04-25T10:07:51Z</time>
            </trkpt>
            <trkpt lat="47.315708157" lon="3.742477425">
                <ele>258.000000</ele>
                <time>2013-04-25T10:07:55Z</time>
            </trkpt>
            <trkpt lat="47.315858159" lon="3.742702427">
                <ele>258.000000</ele>
                <time>2013-04-25T10:07:58Z</time>
            </trkpt>
            <trkpt lat="47.316038160" lon="3.742987430">
                <ele>259.000000</ele>
                <time>2013-04-25T10:08:02Z</time>
            </trkpt>
            <trkpt lat="47.316128161" lon="3.743197432">
                <ele>259.000000</ele>
                <time>2013-04-25T10:08:05Z</time>
            </trkpt>
            <trkpt lat="47.316218162" lon="3.743422434">
                <ele>258.000000</ele>
                <time>2013-04-25T10:08:08Z</time>
            </trkpt>
            <trkpt lat="47.316308163" lon="3.743632436">
                <ele>258.000000</ele>
                <time>2013-04-25T10:08:11Z</time>
            </trkpt>
            <trkpt lat="47.316653167" lon="3.744397444">
                <ele>258.000000</ele>
                <time>2013-04-25T10:08:19Z</time>
            </trkpt>
            <trkpt lat="47.316788168" lon="3.744712447">
                <ele>259.000000</ele>
                <time>2013-04-25T10:08:22Z</time>
            </trkpt>
            <trkpt lat="47.316953170" lon="3.745012450">
                <ele>258.000000</ele>
                <time>2013-04-25T10:08:25Z</time>
            </trkpt>
            <trkpt lat="47.317133171" lon="3.745282453">
                <ele>258.000000</ele>
                <time>2013-04-25T10:08:28Z</time>
            </trkpt>
            <trkpt lat="47.317358174" lon="3.745552456">
                <ele>258.000000</ele>
                <time>2013-04-25T10:08:31Z</time>
            </trkpt>
            <trkpt lat="47.317673177" lon="3.745897459">
                <ele>259.000000</ele>
                <time>2013-04-25T10:08:35Z</time>
            </trkpt>
            <trkpt lat="47.318318183" lon="3.746587466">
                <ele>263.000000</ele>
                <time>2013-04-25T10:08:43Z</time>
            </trkpt>
            <trkpt lat="47.318498185" lon="3.746752468">
                <ele>264.000000</ele>
                <time>2013-04-25T10:08:45Z</time>
            </trkpt>
            <trkpt lat="47.319683197" lon="3.747772478">
                <ele>267.000000</ele>
                <time>2013-04-25T10:08:58Z</time>
            </trkpt>
            <trkpt lat="47.319878199" lon="3.747922479">
                <ele>269.000000</ele>
                <time>2013-04-25T10:09:00Z</time>
            </trkpt>
            <trkpt lat="47.320178202" lon="3.748072481">
                <ele>270.000000</ele>
                <time>2013-04-25T10:09:03Z</time>
            </trkpt>
            <trkpt lat="47.320958210" lon="3.748417484">
                <ele>272.000000</ele>
                <time>2013-04-25T10:09:11Z</time>
            </trkpt>
            <trkpt lat="47.321138211" lon="3.748492485">
                <ele>275.000000</ele>
                <time>2013-04-25T10:09:13Z</time>
            </trkpt>
            <trkpt lat="47.321408214" lon="3.748552486">
                <ele>276.000000</ele>
                <time>2013-04-25T10:09:16Z</time>
            </trkpt>
            <trkpt lat="47.321693217" lon="3.748552486">
                <ele>278.000000</ele>
                <time>2013-04-25T10:09:19Z</time>
            </trkpt>
            <trkpt lat="47.322083221" lon="3.748522485">
                <ele>279.000000</ele>
                <time>2013-04-25T10:09:23Z</time>
            </trkpt>
            <trkpt lat="47.322383224" lon="3.748447484">
                <ele>279.000000</ele>
                <time>2013-04-25T10:09:26Z</time>
            </trkpt>
            <trkpt lat="47.322563226" lon="3.748387484">
                <ele>281.000000</ele>
                <time>2013-04-25T10:09:28Z</time>
            </trkpt>
            <trkpt lat="47.323823238" lon="3.747907479">
                <ele>291.000000</ele>
                <time>2013-04-25T10:09:41Z</time>
            </trkpt>
            <trkpt lat="47.324003240" lon="3.747907479">
                <ele>295.000000</ele>
                <time>2013-04-25T10:09:43Z</time>
            </trkpt>
            <trkpt lat="47.324273243" lon="3.747982480">
                <ele>298.000000</ele>
                <time>2013-04-25T10:09:46Z</time>
            </trkpt>
            <trkpt lat="47.324648246" lon="3.748132481">
                <ele>304.000000</ele>
                <time>2013-04-25T10:09:50Z</time>
            </trkpt>
            <trkpt lat="47.324888249" lon="3.748297483">
                <ele>310.000000</ele>
                <time>2013-04-25T10:09:53Z</time>
            </trkpt>
            <trkpt lat="47.325038250" lon="3.748447484">
                <ele>314.000000</ele>
                <time>2013-04-25T10:09:55Z</time>
            </trkpt>
            <trkpt lat="47.325248252" lon="3.748642486">
                <ele>316.000000</ele>
                <time>2013-04-25T10:09:58Z</time>
            </trkpt>
            <trkpt lat="47.325383254" lon="3.748717487">
                <ele>320.000000</ele>
                <time>2013-04-25T10:10:00Z</time>
            </trkpt>
            <trkpt lat="47.325668257" lon="3.748867489">
                <ele>323.000000</ele>
                <time>2013-04-25T10:10:04Z</time>
            </trkpt>
            <trkpt lat="47.325893259" lon="3.748972490">
                <ele>324.000000</ele>
                <time>2013-04-25T10:10:07Z</time>
            </trkpt>
            <trkpt lat="47.326358264" lon="3.749197492">
                <ele>326.000000</ele>
                <time>2013-04-25T10:10:12Z</time>
            </trkpt>
            <trkpt lat="47.326673267" lon="3.749377494">
                <ele>322.000000</ele>
                <time>2013-04-25T10:10:15Z</time>
            </trkpt>
            <trkpt lat="47.327333273" lon="3.749722497">
                <ele>321.000000</ele>
                <time>2013-04-25T10:10:21Z</time>
            </trkpt>
            <trkpt lat="47.327543275" lon="3.749812498">
                <ele>322.000000</ele>
                <time>2013-04-25T10:10:23Z</time>
            </trkpt>
            <trkpt lat="47.327888279" lon="3.749872499">
                <ele>324.000000</ele>
                <time>2013-04-25T10:10:26Z</time>
            </trkpt>
            <trkpt lat="47.328113281" lon="3.749887499">
                <ele>327.000000</ele>
                <time>2013-04-25T10:10:28Z</time>
            </trkpt>
            <trkpt lat="47.328578286" lon="3.749917499">
                <ele>329.000000</ele>
                <time>2013-04-25T10:10:32Z</time>
            </trkpt>
            <trkpt lat="47.329028290" lon="3.749992500">
                <ele>331.000000</ele>
                <time>2013-04-25T10:10:36Z</time>
            </trkpt>
            <trkpt lat="47.329223292" lon="3.750007500">
                <ele>333.000000</ele>
                <time>2013-04-25T10:10:38Z</time>
            </trkpt>
            <trkpt lat="47.329508295" lon="3.749992500">
                <ele>335.000000</ele>
                <time>2013-04-25T10:10:41Z</time>
            </trkpt>
            <trkpt lat="47.329688297" lon="3.749962500">
                <ele>336.000000</ele>
                <time>2013-04-25T10:10:43Z</time>
            </trkpt>
            <trkpt lat="47.330183302" lon="3.749872499">
                <ele>337.000000</ele>
                <time>2013-04-25T10:10:48Z</time>
            </trkpt>
            <trkpt lat="47.330363304" lon="3.749842498">
                <ele>337.000000</ele>
                <time>2013-04-25T10:10:51Z</time>
            </trkpt>
            <trkpt lat="47.330483305" lon="3.749737497">
                <ele>338.000000</ele>
                <time>2013-04-25T10:11:01Z</time>
            </trkpt>
            <trkpt lat="47.330618306" lon="3.749662497">
                <ele>339.000000</ele>
                <time>2013-04-25T10:11:37Z</time>
            </trkpt>
            <trkpt lat="47.330768308" lon="3.749617496">
                <ele>340.000000</ele>
                <time>2013-04-25T10:11:40Z</time>
            </trkpt>
            <trkpt lat="47.331188312" lon="3.749512495">
                <ele>341.000000</ele>
                <time>2013-04-25T10:11:45Z</time>
            </trkpt>
            <trkpt lat="47.331368314" lon="3.749467495">
                <ele>342.000000</ele>
                <time>2013-04-25T10:11:47Z</time>
            </trkpt>
            <trkpt lat="47.331623316" lon="3.749422494">
                <ele>343.000000</ele>
                <time>2013-04-25T10:11:50Z</time>
            </trkpt>
            <trkpt lat="47.331893319" lon="3.749392494">
                <ele>342.000000</ele>
                <time>2013-04-25T10:11:53Z</time>
            </trkpt>
            <trkpt lat="47.332163322" lon="3.749392494">
                <ele>342.000000</ele>
                <time>2013-04-25T10:11:56Z</time>
            </trkpt>
            <trkpt lat="47.332448324" lon="3.749407494">
                <ele>342.000000</ele>
                <time>2013-04-25T10:11:59Z</time>
            </trkpt>
            <trkpt lat="47.332628326" lon="3.749437494">
                <ele>343.000000</ele>
                <time>2013-04-25T10:12:01Z</time>
            </trkpt>
            <trkpt lat="47.332913329" lon="3.749497495">
                <ele>343.000000</ele>
                <time>2013-04-25T10:12:04Z</time>
            </trkpt>
            <trkpt lat="47.333063331" lon="3.749557496">
                <ele>344.000000</ele>
                <time>2013-04-25T10:12:06Z</time>
            </trkpt>
            <trkpt lat="47.333273333" lon="3.749662497">
                <ele>344.000000</ele>
                <time>2013-04-25T10:12:09Z</time>
            </trkpt>
            <trkpt lat="47.333603336" lon="3.749842498">
                <ele>343.000000</ele>
                <time>2013-04-25T10:12:13Z</time>
            </trkpt>
            <trkpt lat="47.333798338" lon="3.749962500">
                <ele>342.000000</ele>
                <time>2013-04-25T10:12:15Z</time>
            </trkpt>
            <trkpt lat="47.335193352" lon="3.750787508">
                <ele>329.000000</ele>
                <time>2013-04-25T10:12:28Z</time>
            </trkpt>
            <trkpt lat="47.335403354" lon="3.750862509">
                <ele>328.000000</ele>
                <time>2013-04-25T10:12:31Z</time>
            </trkpt>
            <trkpt lat="47.335733357" lon="3.750922509">
                <ele>327.000000</ele>
                <time>2013-04-25T10:12:33Z</time>
            </trkpt>
            <trkpt lat="47.336048360" lon="3.751012510">
                <ele>325.000000</ele>
                <time>2013-04-25T10:12:36Z</time>
            </trkpt>
            <trkpt lat="47.336228362" lon="3.751087511">
                <ele>323.000000</ele>
                <time>2013-04-25T10:12:38Z</time>
            </trkpt>
            <trkpt lat="47.336378364" lon="3.751147511">
                <ele>322.000000</ele>
                <time>2013-04-25T10:12:41Z</time>
            </trkpt>
            <trkpt lat="47.336528365" lon="3.751012510">
                <ele>320.000000</ele>
                <time>2013-04-25T10:12:47Z</time>
            </trkpt>
            <trkpt lat="47.336633366" lon="3.750817508">
                <ele>321.000000</ele>
                <time>2013-04-25T10:12:50Z</time>
            </trkpt>
            <trkpt lat="47.336768368" lon="3.750577506">
                <ele>322.000000</ele>
                <time>2013-04-25T10:12:53Z</time>
            </trkpt>
            <trkpt lat="47.336888369" lon="3.750427504">
                <ele>324.000000</ele>
                <time>2013-04-25T10:12:55Z</time>
            </trkpt>
            <trkpt lat="47.337038370" lon="3.750292503">
                <ele>326.000000</ele>
                <time>2013-04-25T10:12:57Z</time>
            </trkpt>
            <trkpt lat="47.337308373" lon="3.750202502">
                <ele>328.000000</ele>
                <time>2013-04-25T10:13:00Z</time>
            </trkpt>
            <trkpt lat="47.337623376" lon="3.750127501">
                <ele>331.000000</ele>
                <time>2013-04-25T10:13:03Z</time>
            </trkpt>
            <trkpt lat="47.338178382" lon="3.750007500">
                <ele>334.000000</ele>
                <time>2013-04-25T10:13:09Z</time>
            </trkpt>
            <trkpt lat="47.338313383" lon="3.749977500">
                <ele>335.000000</ele>
                <time>2013-04-25T10:13:11Z</time>
            </trkpt>
            <trkpt lat="47.338538385" lon="3.749977500">
                <ele>336.000000</ele>
                <time>2013-04-25T10:13:14Z</time>
            </trkpt>
            <trkpt lat="47.339078391" lon="3.750007500">
                <ele>337.000000</ele>
                <time>2013-04-25T10:13:20Z</time>
            </trkpt>
            <trkpt lat="47.339933399" lon="3.750067501">
                <ele>338.000000</ele>
                <time>2013-04-25T10:13:28Z</time>
            </trkpt>
            <trkpt lat="47.340128401" lon="3.750112501">
                <ele>337.000000</ele>
                <time>2013-04-25T10:13:30Z</time>
            </trkpt>
            <trkpt lat="47.340428404" lon="3.750157502">
                <ele>337.000000</ele>
                <time>2013-04-25T10:13:33Z</time>
            </trkpt>
            <trkpt lat="47.340728407" lon="3.750172502">
                <ele>335.000000</ele>
                <time>2013-04-25T10:13:36Z</time>
            </trkpt>
            <trkpt lat="47.341883419" lon="3.750247502">
                <ele>329.000000</ele>
                <time>2013-04-25T10:13:46Z</time>
            </trkpt>
            <trkpt lat="47.342123421" lon="3.750232502">
                <ele>328.000000</ele>
                <time>2013-04-25T10:13:48Z</time>
            </trkpt>
            <trkpt lat="47.342333423" lon="3.750187502">
                <ele>326.000000</ele>
                <time>2013-04-25T10:13:50Z</time>
            </trkpt>
            <trkpt lat="47.343173432" lon="3.750022500">
                <ele>323.000000</ele>
                <time>2013-04-25T10:13:59Z</time>
            </trkpt>
            <trkpt lat="47.343218432" lon="3.750232502">
                <ele>325.000000</ele>
                <time>2013-04-25T10:14:08Z</time>
            </trkpt>
            <trkpt lat="47.343248432" lon="3.750532505">
                <ele>326.000000</ele>
                <time>2013-04-25T10:14:11Z</time>
            </trkpt>
            <trkpt lat="47.343308433" lon="3.750937509">
                <ele>326.000000</ele>
                <time>2013-04-25T10:14:14Z</time>
            </trkpt>
            <trkpt lat="47.343413434" lon="3.751717517">
                <ele>329.000000</ele>
                <time>2013-04-25T10:14:19Z</time>
            </trkpt>
            <trkpt lat="47.343533435" lon="3.752152522">
                <ele>330.000000</ele>
                <time>2013-04-25T10:14:22Z</time>
            </trkpt>
            <trkpt lat="47.343638436" lon="3.752407524">
                <ele>332.000000</ele>
                <time>2013-04-25T10:14:24Z</time>
            </trkpt>
            <trkpt lat="47.343788438" lon="3.752722527">
                <ele>333.000000</ele>
                <time>2013-04-25T10:14:27Z</time>
            </trkpt>
            <trkpt lat="47.343893439" lon="3.752887529">
                <ele>335.000000</ele>
                <time>2013-04-25T10:14:30Z</time>
            </trkpt>
            <trkpt lat="47.344028440" lon="3.752827528">
                <ele>336.000000</ele>
                <time>2013-04-25T10:14:34Z</time>
            </trkpt>
            <trkpt lat="47.344178442" lon="3.752647526">
                <ele>334.000000</ele>
                <time>2013-04-25T10:14:37Z</time>
            </trkpt>
            <trkpt lat="47.344298443" lon="3.752467525">
                <ele>333.000000</ele>
                <time>2013-04-25T10:14:39Z</time>
            </trkpt>
            <trkpt lat="47.345588456" lon="3.750457505">
                <ele>330.000000</ele>
                <time>2013-04-25T10:14:56Z</time>
            </trkpt>
            <trkpt lat="47.345708457" lon="3.750247502">
                <ele>331.000000</ele>
                <time>2013-04-25T10:14:58Z</time>
            </trkpt>
            <trkpt lat="47.345948459" lon="3.749842498">
                <ele>332.000000</ele>
                <time>2013-04-25T10:15:03Z</time>
            </trkpt>
            <trkpt lat="47.346053461" lon="3.749707497">
                <ele>332.000000</ele>
                <time>2013-04-25T10:15:08Z</time>
            </trkpt>
            <trkpt lat="47.346128461" lon="3.749497495">
                <ele>333.000000</ele>
                <time>2013-04-25T10:15:21Z</time>
            </trkpt>
            <trkpt lat="47.346233462" lon="3.749302493">
                <ele>334.000000</ele>
                <time>2013-04-25T10:15:24Z</time>
            </trkpt>
            <trkpt lat="47.346668467" lon="3.748522485">
                <ele>335.000000</ele>
                <time>2013-04-25T10:15:32Z</time>
            </trkpt>
            <trkpt lat="47.346818468" lon="3.748267483">
                <ele>335.000000</ele>
                <time>2013-04-25T10:15:35Z</time>
            </trkpt>
            <trkpt lat="47.346893469" lon="3.748042480">
                <ele>335.000000</ele>
                <time>2013-04-25T10:15:38Z</time>
            </trkpt>
            <trkpt lat="47.347598476" lon="3.745777458">
                <ele>335.000000</ele>
                <time>2013-04-25T10:15:56Z</time>
            </trkpt>
            <trkpt lat="47.347778478" lon="3.745072451">
                <ele>334.000000</ele>
                <time>2013-04-25T10:16:01Z</time>
            </trkpt>
            <trkpt lat="47.347838478" lon="3.744742447">
                <ele>333.000000</ele>
                <time>2013-04-25T10:16:04Z</time>
            </trkpt>
            <trkpt lat="47.347853479" lon="3.744517445">
                <ele>331.000000</ele>
                <time>2013-04-25T10:16:16Z</time>
            </trkpt>
            <trkpt lat="47.347883479" lon="3.743962440">
                <ele>328.000000</ele>
                <time>2013-04-25T10:16:21Z</time>
            </trkpt>
            <trkpt lat="47.347883479" lon="3.743677437">
                <ele>325.000000</ele>
                <time>2013-04-25T10:16:23Z</time>
            </trkpt>
            <trkpt lat="47.347883479" lon="3.743212432">
                <ele>324.000000</ele>
                <time>2013-04-25T10:16:26Z</time>
            </trkpt>
            <trkpt lat="47.347928479" lon="3.742747427">
                <ele>323.000000</ele>
                <time>2013-04-25T10:16:29Z</time>
            </trkpt>
            <trkpt lat="47.347973480" lon="3.742282423">
                <ele>321.000000</ele>
                <time>2013-04-25T10:16:32Z</time>
            </trkpt>
            <trkpt lat="47.347988480" lon="3.741832418">
                <ele>321.000000</ele>
                <time>2013-04-25T10:16:35Z</time>
            </trkpt>
            <trkpt lat="47.348003480" lon="3.741382414">
                <ele>321.000000</ele>
                <time>2013-04-25T10:16:38Z</time>
            </trkpt>
            <trkpt lat="47.348003480" lon="3.740932409">
                <ele>320.000000</ele>
                <time>2013-04-25T10:16:41Z</time>
            </trkpt>
            <trkpt lat="47.347973480" lon="3.740617406">
                <ele>319.000000</ele>
                <time>2013-04-25T10:16:43Z</time>
            </trkpt>
            <trkpt lat="47.347913479" lon="3.739882399">
                <ele>317.000000</ele>
                <time>2013-04-25T10:16:48Z</time>
            </trkpt>
            <trkpt lat="47.347808478" lon="3.739462395">
                <ele>316.000000</ele>
                <time>2013-04-25T10:16:51Z</time>
            </trkpt>
            <trkpt lat="47.347568476" lon="3.738502385">
                <ele>309.000000</ele>
                <time>2013-04-25T10:16:59Z</time>
            </trkpt>
            <trkpt lat="47.347703477" lon="3.738397384">
                <ele>308.000000</ele>
                <time>2013-04-25T10:17:05Z</time>
            </trkpt>
            <trkpt lat="47.347868479" lon="3.738397384">
                <ele>309.000000</ele>
                <time>2013-04-25T10:17:08Z</time>
            </trkpt>
            <trkpt lat="47.348258483" lon="3.738427384">
                <ele>310.000000</ele>
                <time>2013-04-25T10:17:13Z</time>
            </trkpt>
            <trkpt lat="47.348618486" lon="3.738472385">
                <ele>311.000000</ele>
                <time>2013-04-25T10:17:17Z</time>
            </trkpt>
            <trkpt lat="47.348903489" lon="3.738532385">
                <ele>311.000000</ele>
                <time>2013-04-25T10:17:20Z</time>
            </trkpt>
            <trkpt lat="47.349218492" lon="3.738667387">
                <ele>311.000000</ele>
                <time>2013-04-25T10:17:23Z</time>
            </trkpt>
            <trkpt lat="47.349503495" lon="3.738847388">
                <ele>311.000000</ele>
                <time>2013-04-25T10:17:26Z</time>
            </trkpt>
            <trkpt lat="47.349698497" lon="3.738982390">
                <ele>312.000000</ele>
                <time>2013-04-25T10:17:28Z</time>
            </trkpt>
            <trkpt lat="47.349953500" lon="3.739192392">
                <ele>313.000000</ele>
                <time>2013-04-25T10:17:31Z</time>
            </trkpt>
            <trkpt lat="47.350193502" lon="3.739387394">
                <ele>314.000000</ele>
                <time>2013-04-25T10:17:34Z</time>
            </trkpt>
            <trkpt lat="47.350343503" lon="3.739357394">
                <ele>316.000000</ele>
                <time>2013-04-25T10:17:37Z</time>
            </trkpt>
            <trkpt lat="47.350478505" lon="3.739207392">
                <ele>318.000000</ele>
                <time>2013-04-25T10:17:40Z</time>
            </trkpt>
            <trkpt lat="47.350688507" lon="3.739087391">
                <ele>320.000000</ele>
                <time>2013-04-25T10:17:43Z</time>
            </trkpt>
            <trkpt lat="47.351003510" lon="3.738937389">
                <ele>321.000000</ele>
                <time>2013-04-25T10:17:47Z</time>
            </trkpt>
            <trkpt lat="47.353043530" lon="3.738022380">
                <ele>342.000000</ele>
                <time>2013-04-25T10:18:10Z</time>
            </trkpt>
            <trkpt lat="47.353208532" lon="3.737962380">
                <ele>344.000000</ele>
                <time>2013-04-25T10:18:13Z</time>
            </trkpt>
            <trkpt lat="47.353343533" lon="3.737992380">
                <ele>348.000000</ele>
                <time>2013-04-25T10:18:17Z</time>
            </trkpt>
            <trkpt lat="47.353433534" lon="3.737782378">
                <ele>352.000000</ele>
                <time>2013-04-25T10:18:22Z</time>
            </trkpt>
            <trkpt lat="47.353478535" lon="3.737482375">
                <ele>357.000000</ele>
                <time>2013-04-25T10:18:26Z</time>
            </trkpt>
            <trkpt lat="47.353553536" lon="3.737272373">
                <ele>359.000000</ele>
                <time>2013-04-25T10:18:29Z</time>
            </trkpt>
            <trkpt lat="47.353613536" lon="3.737047370">
                <ele>360.000000</ele>
                <time>2013-04-25T10:18:32Z</time>
            </trkpt>
            <trkpt lat="47.353733537" lon="3.736852369">
                <ele>360.000000</ele>
                <time>2013-04-25T10:18:35Z</time>
            </trkpt>
            <trkpt lat="47.353883539" lon="3.736717367">
                <ele>360.000000</ele>
                <time>2013-04-25T10:18:38Z</time>
            </trkpt>
            <trkpt lat="47.354048540" lon="3.736672367">
                <ele>364.000000</ele>
                <time>2013-04-25T10:18:41Z</time>
            </trkpt>
            <trkpt lat="47.354168542" lon="3.736792368">
                <ele>366.000000</ele>
                <time>2013-04-25T10:18:45Z</time>
            </trkpt>
            <trkpt lat="47.354123541" lon="3.736987370">
                <ele>374.000000</ele>
                <time>2013-04-25T10:23:24Z</time>
            </trkpt>
            <trkpt lat="47.354108541" lon="3.737227372">
                <ele>372.000000</ele>
                <time>2013-04-25T10:23:29Z</time>
            </trkpt>
            <trkpt lat="47.354063541" lon="3.737467375">
                <ele>372.000000</ele>
                <time>2013-04-25T10:23:33Z</time>
            </trkpt>
            <trkpt lat="47.354003540" lon="3.737692377">
                <ele>373.000000</ele>
                <time>2013-04-25T10:23:37Z</time>
            </trkpt>
            <trkpt lat="47.353853539" lon="3.737707377">
                <ele>375.000000</ele>
                <time>2013-04-25T10:23:42Z</time>
            </trkpt>
            <trkpt lat="47.353763538" lon="3.737557376">
                <ele>374.000000</ele>
                <time>2013-04-25T10:23:47Z</time>
            </trkpt>
            <trkpt lat="47.353838538" lon="3.737122371">
                <ele>372.000000</ele>
                <time>2013-04-25T10:24:04Z</time>
            </trkpt>
            <trkpt lat="47.353928539" lon="3.736927369">
                <ele>372.000000</ele>
                <time>2013-04-25T10:24:08Z</time>
            </trkpt>
            <trkpt lat="47.354048540" lon="3.736792368">
                <ele>372.000000</ele>
                <time>2013-04-25T10:24:14Z</time>
            </trkpt>
            <trkpt lat="47.353883539" lon="3.736747367">
                <ele>370.000000</ele>
                <time>2013-04-25T10:24:42Z</time>
            </trkpt>
            <trkpt lat="47.353733537" lon="3.736882369">
                <ele>367.000000</ele>
                <time>2013-04-25T10:24:47Z</time>
            </trkpt>
            <trkpt lat="47.353628536" lon="3.737032370">
                <ele>363.000000</ele>
                <time>2013-04-25T10:24:50Z</time>
            </trkpt>
            <trkpt lat="47.353568536" lon="3.737227372">
                <ele>360.000000</ele>
                <time>2013-04-25T10:24:53Z</time>
            </trkpt>
            <trkpt lat="47.353493535" lon="3.737467375">
                <ele>354.000000</ele>
                <time>2013-04-25T10:24:56Z</time>
            </trkpt>
            <trkpt lat="47.353433534" lon="3.737692377">
                <ele>348.000000</ele>
                <time>2013-04-25T10:24:59Z</time>
            </trkpt>
            <trkpt lat="47.353403534" lon="3.737887379">
                <ele>347.000000</ele>
                <time>2013-04-25T10:25:02Z</time>
            </trkpt>
            <trkpt lat="47.353433534" lon="3.737632376">
                <ele>347.000000</ele>
                <time>2013-04-25T10:26:23Z</time>
            </trkpt>
            <trkpt lat="47.353523535" lon="3.737392374">
                <ele>350.000000</ele>
                <time>2013-04-25T10:26:26Z</time>
            </trkpt>
            <trkpt lat="47.353628536" lon="3.737152372">
                <ele>350.000000</ele>
                <time>2013-04-25T10:26:29Z</time>
            </trkpt>
            <trkpt lat="47.353748537" lon="3.736912369">
                <ele>355.000000</ele>
                <time>2013-04-25T10:26:32Z</time>
            </trkpt>
            <trkpt lat="47.353898539" lon="3.736732367">
                <ele>358.000000</ele>
                <time>2013-04-25T10:26:35Z</time>
            </trkpt>
            <trkpt lat="47.354048540" lon="3.736717367">
                <ele>363.000000</ele>
                <time>2013-04-25T10:26:38Z</time>
            </trkpt>
            <trkpt lat="47.354183542" lon="3.736612366">
                <ele>370.000000</ele>
                <time>2013-04-25T10:26:48Z</time>
            </trkpt>
            <trkpt lat="47.354318543" lon="3.736522365">
                <ele>368.000000</ele>
                <time>2013-04-25T10:26:58Z</time>
            </trkpt>
            <trkpt lat="47.354393544" lon="3.736342363">
                <ele>364.000000</ele>
                <time>2013-04-25T10:27:11Z</time>
            </trkpt>
            <trkpt lat="47.354483545" lon="3.736177362">
                <ele>356.000000</ele>
                <time>2013-04-25T10:27:20Z</time>
            </trkpt>
            <trkpt lat="47.354588546" lon="3.736027360">
                <ele>350.000000</ele>
                <time>2013-04-25T10:27:28Z</time>
            </trkpt>
            <trkpt lat="47.354618546" lon="3.735817358">
                <ele>351.000000</ele>
                <time>2013-04-25T10:27:38Z</time>
            </trkpt>
            <trkpt lat="47.354483545" lon="3.735697357">
                <ele>350.000000</ele>
                <time>2013-04-25T10:27:42Z</time>
            </trkpt>
            <trkpt lat="47.354273543" lon="3.735562356">
                <ele>348.000000</ele>
                <time>2013-04-25T10:27:59Z</time>
            </trkpt>
            <trkpt lat="47.354138541" lon="3.735547355">
                <ele>346.000000</ele>
                <time>2013-04-25T10:28:01Z</time>
            </trkpt>
            <trkpt lat="47.353808538" lon="3.735532355">
                <ele>342.000000</ele>
                <time>2013-04-25T10:28:05Z</time>
            </trkpt>
            <trkpt lat="47.353613536" lon="3.735442354">
                <ele>340.000000</ele>
                <time>2013-04-25T10:28:08Z</time>
            </trkpt>
            <trkpt lat="47.353418534" lon="3.735382354">
                <ele>338.000000</ele>
                <time>2013-04-25T10:28:11Z</time>
            </trkpt>
            <trkpt lat="47.353223532" lon="3.735337353">
                <ele>335.000000</ele>
                <time>2013-04-25T10:28:14Z</time>
            </trkpt>
            <trkpt lat="47.353058531" lon="3.735322353">
                <ele>334.000000</ele>
                <time>2013-04-25T10:28:18Z</time>
            </trkpt>
            <trkpt lat="47.351738517" lon="3.735127351">
                <ele>317.000000</ele>
                <time>2013-04-25T10:28:35Z</time>
            </trkpt>
            <trkpt lat="47.351558516" lon="3.734932349">
                <ele>316.000000</ele>
                <time>2013-04-25T10:28:38Z</time>
            </trkpt>
            <trkpt lat="47.351438514" lon="3.734722347">
                <ele>314.000000</ele>
                <time>2013-04-25T10:28:41Z</time>
            </trkpt>
            <trkpt lat="47.351468515" lon="3.734482345">
                <ele>312.000000</ele>
                <time>2013-04-25T10:28:46Z</time>
            </trkpt>
            <trkpt lat="47.351468515" lon="3.734242342">
                <ele>312.000000</ele>
                <time>2013-04-25T10:28:49Z</time>
            </trkpt>
            <trkpt lat="47.351468515" lon="3.733717337">
                <ele>310.000000</ele>
                <time>2013-04-25T10:28:54Z</time>
            </trkpt>
            <trkpt lat="47.351573516" lon="3.733102331">
                <ele>307.000000</ele>
                <time>2013-04-25T10:28:59Z</time>
            </trkpt>
            <trkpt lat="47.351573516" lon="3.732817328">
                <ele>305.000000</ele>
                <time>2013-04-25T10:29:01Z</time>
            </trkpt>
            <trkpt lat="47.351603516" lon="3.732412324">
                <ele>304.000000</ele>
                <time>2013-04-25T10:29:04Z</time>
            </trkpt>
            <trkpt lat="47.351648516" lon="3.732127321">
                <ele>300.000000</ele>
                <time>2013-04-25T10:29:06Z</time>
            </trkpt>
            <trkpt lat="47.351738517" lon="3.731722317">
                <ele>299.000000</ele>
                <time>2013-04-25T10:29:09Z</time>
            </trkpt>
            <trkpt lat="47.351873519" lon="3.731212312">
                <ele>296.000000</ele>
                <time>2013-04-25T10:29:13Z</time>
            </trkpt>
            <trkpt lat="47.352008520" lon="3.730732307">
                <ele>294.000000</ele>
                <time>2013-04-25T10:29:17Z</time>
            </trkpt>
            <trkpt lat="47.352128521" lon="3.730387304">
                <ele>294.000000</ele>
                <time>2013-04-25T10:29:20Z</time>
            </trkpt>
            <trkpt lat="47.352278523" lon="3.729907299">
                <ele>294.000000</ele>
                <time>2013-04-25T10:29:24Z</time>
            </trkpt>
            <trkpt lat="47.352398524" lon="3.729577296">
                <ele>294.000000</ele>
                <time>2013-04-25T10:29:27Z</time>
            </trkpt>
            <trkpt lat="47.352488525" lon="3.729382294">
                <ele>293.000000</ele>
                <time>2013-04-25T10:29:29Z</time>
            </trkpt>
            <trkpt lat="47.352653527" lon="3.728962290">
                <ele>293.000000</ele>
                <time>2013-04-25T10:29:33Z</time>
            </trkpt>
            <trkpt lat="47.353028530" lon="3.727957280">
                <ele>293.000000</ele>
                <time>2013-04-25T10:29:44Z</time>
            </trkpt>
            <trkpt lat="47.352923529" lon="3.727822278">
                <ele>293.000000</ele>
                <time>2013-04-25T10:29:49Z</time>
            </trkpt>
            <trkpt lat="47.352773528" lon="3.727747277">
                <ele>292.000000</ele>
                <time>2013-04-25T10:29:52Z</time>
            </trkpt>
            <trkpt lat="47.352383524" lon="3.727552276">
                <ele>288.000000</ele>
                <time>2013-04-25T10:29:58Z</time>
            </trkpt>
            <trkpt lat="47.352248522" lon="3.727552276">
                <ele>286.000000</ele>
                <time>2013-04-25T10:30:01Z</time>
            </trkpt>
            <trkpt lat="47.352128521" lon="3.727717277">
                <ele>285.000000</ele>
                <time>2013-04-25T10:30:03Z</time>
            </trkpt>
            <trkpt lat="47.352068521" lon="3.727912279">
                <ele>282.000000</ele>
                <time>2013-04-25T10:30:05Z</time>
            </trkpt>
            <trkpt lat="47.351798518" lon="3.728242282">
                <ele>280.000000</ele>
                <time>2013-04-25T10:30:10Z</time>
            </trkpt>
            <trkpt lat="47.351603516" lon="3.728272283">
                <ele>278.000000</ele>
                <time>2013-04-25T10:30:13Z</time>
            </trkpt>
            <trkpt lat="47.351468515" lon="3.728227282">
                <ele>276.000000</ele>
                <time>2013-04-25T10:30:15Z</time>
            </trkpt>
            <trkpt lat="47.351273513" lon="3.728077281">
                <ele>275.000000</ele>
                <time>2013-04-25T10:30:18Z</time>
            </trkpt>
            <trkpt lat="47.351213512" lon="3.727897279">
                <ele>273.000000</ele>
                <time>2013-04-25T10:30:20Z</time>
            </trkpt>
            <trkpt lat="47.351228512" lon="3.727612276">
                <ele>272.000000</ele>
                <time>2013-04-25T10:30:23Z</time>
            </trkpt>
            <trkpt lat="47.351273513" lon="3.727372274">
                <ele>268.000000</ele>
                <time>2013-04-25T10:30:25Z</time>
            </trkpt>
            <trkpt lat="47.351333513" lon="3.726997270">
                <ele>266.000000</ele>
                <time>2013-04-25T10:30:28Z</time>
            </trkpt>
            <trkpt lat="47.351333513" lon="3.726757268">
                <ele>264.000000</ele>
                <time>2013-04-25T10:30:30Z</time>
            </trkpt>
            <trkpt lat="47.351273513" lon="3.726487265">
                <ele>263.000000</ele>
                <time>2013-04-25T10:30:33Z</time>
            </trkpt>
            <trkpt lat="47.351153512" lon="3.726382264">
                <ele>261.000000</ele>
                <time>2013-04-25T10:30:35Z</time>
            </trkpt>
            <trkpt lat="47.350928509" lon="3.726232262">
                <ele>261.000000</ele>
                <time>2013-04-25T10:30:38Z</time>
            </trkpt>
            <trkpt lat="47.350763508" lon="3.726082261">
                <ele>261.000000</ele>
                <time>2013-04-25T10:30:40Z</time>
            </trkpt>
            <trkpt lat="47.350208502" lon="3.725542255">
                <ele>259.000000</ele>
                <time>2013-04-25T10:30:47Z</time>
            </trkpt>
            <trkpt lat="47.349878499" lon="3.725077251">
                <ele>260.000000</ele>
                <time>2013-04-25T10:30:52Z</time>
            </trkpt>
            <trkpt lat="47.349668497" lon="3.724807248">
                <ele>262.000000</ele>
                <time>2013-04-25T10:30:55Z</time>
            </trkpt>
            <trkpt lat="47.349443494" lon="3.724597246">
                <ele>261.000000</ele>
                <time>2013-04-25T10:30:58Z</time>
            </trkpt>
            <trkpt lat="47.348543485" lon="3.723757238">
                <ele>251.000000</ele>
                <time>2013-04-25T10:31:10Z</time>
            </trkpt>
            <trkpt lat="47.348408484" lon="3.723682237">
                <ele>247.000000</ele>
                <time>2013-04-25T10:31:15Z</time>
            </trkpt>
            <trkpt lat="47.348273483" lon="3.723652237">
                <ele>247.000000</ele>
                <time>2013-04-25T10:31:18Z</time>
            </trkpt>
            <trkpt lat="47.348063481" lon="3.723622236">
                <ele>247.000000</ele>
                <time>2013-04-25T10:31:21Z</time>
            </trkpt>
            <trkpt lat="47.347913479" lon="3.723622236">
                <ele>246.000000</ele>
                <time>2013-04-25T10:31:24Z</time>
            </trkpt>
            <trkpt lat="47.347403474" lon="3.723697237">
                <ele>243.000000</ele>
                <time>2013-04-25T10:31:29Z</time>
            </trkpt>
            <trkpt lat="47.347133471" lon="3.723697237">
                <ele>241.000000</ele>
                <time>2013-04-25T10:31:32Z</time>
            </trkpt>
            <trkpt lat="47.346803468" lon="3.723697237">
                <ele>238.000000</ele>
                <time>2013-04-25T10:31:36Z</time>
            </trkpt>
            <trkpt lat="47.346608466" lon="3.723742237">
                <ele>237.000000</ele>
                <time>2013-04-25T10:31:39Z</time>
            </trkpt>
            <trkpt lat="47.346473465" lon="3.723772238">
                <ele>238.000000</ele>
                <time>2013-04-25T10:31:41Z</time>
            </trkpt>
            <trkpt lat="47.346323463" lon="3.723787238">
                <ele>237.000000</ele>
                <time>2013-04-25T10:31:44Z</time>
            </trkpt>
            <trkpt lat="47.346188462" lon="3.723802238">
                <ele>235.000000</ele>
                <time>2013-04-25T10:31:48Z</time>
            </trkpt>
            <trkpt lat="47.346038460" lon="3.723907239">
                <ele>236.000000</ele>
                <time>2013-04-25T10:31:52Z</time>
            </trkpt>
            <trkpt lat="47.345873459" lon="3.723967240">
                <ele>236.000000</ele>
                <time>2013-04-25T10:31:55Z</time>
            </trkpt>
            <trkpt lat="47.345693457" lon="3.723982240">
                <ele>237.000000</ele>
                <time>2013-04-25T10:31:58Z</time>
            </trkpt>
            <trkpt lat="47.345558456" lon="3.724012240">
                <ele>236.000000</ele>
                <time>2013-04-25T10:32:01Z</time>
            </trkpt>
            <trkpt lat="47.345258453" lon="3.724117241">
                <ele>238.000000</ele>
                <time>2013-04-25T10:32:07Z</time>
            </trkpt>
            <trkpt lat="47.345093451" lon="3.724117241">
                <ele>238.000000</ele>
                <time>2013-04-25T10:32:10Z</time>
            </trkpt>
            <trkpt lat="47.344958450" lon="3.724177242">
                <ele>241.000000</ele>
                <time>2013-04-25T10:32:14Z</time>
            </trkpt>
            <trkpt lat="47.345033450" lon="3.724387244">
                <ele>240.000000</ele>
                <time>2013-04-25T10:32:19Z</time>
            </trkpt>
            <trkpt lat="47.345078451" lon="3.724582246">
                <ele>239.000000</ele>
                <time>2013-04-25T10:32:22Z</time>
            </trkpt>
            <trkpt lat="47.345198452" lon="3.725062251">
                <ele>239.000000</ele>
                <time>2013-04-25T10:32:29Z</time>
            </trkpt>
            <trkpt lat="47.345243452" lon="3.725287253">
                <ele>240.000000</ele>
                <time>2013-04-25T10:32:32Z</time>
            </trkpt>
            <trkpt lat="47.345198452" lon="3.725482255">
                <ele>240.000000</ele>
                <time>2013-04-25T10:32:36Z</time>
            </trkpt>
            <trkpt lat="47.345048450" lon="3.725437254">
                <ele>242.000000</ele>
                <time>2013-04-25T10:32:40Z</time>
            </trkpt>
            <trkpt lat="47.344838448" lon="3.725317253">
                <ele>241.000000</ele>
                <time>2013-04-25T10:32:45Z</time>
            </trkpt>
            <trkpt lat="47.344643446" lon="3.725167252">
                <ele>241.000000</ele>
                <time>2013-04-25T10:32:47Z</time>
            </trkpt>
            <trkpt lat="47.344433444" lon="3.725017250">
                <ele>244.000000</ele>
                <time>2013-04-25T10:32:50Z</time>
            </trkpt>
            <trkpt lat="47.344268443" lon="3.724927249">
                <ele>246.000000</ele>
                <time>2013-04-25T10:32:52Z</time>
            </trkpt>
            <trkpt lat="47.344088441" lon="3.724822248">
                <ele>248.000000</ele>
                <time>2013-04-25T10:32:55Z</time>
            </trkpt>
            <trkpt lat="47.343788438" lon="3.724732247">
                <ele>249.000000</ele>
                <time>2013-04-25T10:32:57Z</time>
            </trkpt>
            <trkpt lat="47.343578436" lon="3.724717247">
                <ele>250.000000</ele>
                <time>2013-04-25T10:32:59Z</time>
            </trkpt>
            <trkpt lat="47.343173432" lon="3.724702247">
                <ele>257.000000</ele>
                <time>2013-04-25T10:33:03Z</time>
            </trkpt>
            <trkpt lat="47.342963430" lon="3.724717247">
                <ele>260.000000</ele>
                <time>2013-04-25T10:33:05Z</time>
            </trkpt>
            <trkpt lat="47.342663427" lon="3.724792248">
                <ele>262.000000</ele>
                <time>2013-04-25T10:33:08Z</time>
            </trkpt>
            <trkpt lat="47.342468425" lon="3.724822248">
                <ele>266.000000</ele>
                <time>2013-04-25T10:33:10Z</time>
            </trkpt>
            <trkpt lat="47.342183422" lon="3.724867249">
                <ele>270.000000</ele>
                <time>2013-04-25T10:33:13Z</time>
            </trkpt>
            <trkpt lat="47.341928419" lon="3.725002250">
                <ele>273.000000</ele>
                <time>2013-04-25T10:33:16Z</time>
            </trkpt>
            <trkpt lat="47.341673417" lon="3.725137251">
                <ele>276.000000</ele>
                <time>2013-04-25T10:33:19Z</time>
            </trkpt>
            <trkpt lat="47.341373414" lon="3.725122251">
                <ele>277.000000</ele>
                <time>2013-04-25T10:33:24Z</time>
            </trkpt>
            <trkpt lat="47.340863409" lon="3.725002250">
                <ele>278.000000</ele>
                <time>2013-04-25T10:33:27Z</time>
            </trkpt>
            <trkpt lat="47.340668407" lon="3.724972250">
                <ele>277.000000</ele>
                <time>2013-04-25T10:33:29Z</time>
            </trkpt>
            <trkpt lat="47.340503405" lon="3.724972250">
                <ele>278.000000</ele>
                <time>2013-04-25T10:33:31Z</time>
            </trkpt>
            <trkpt lat="47.340278403" lon="3.725047250">
                <ele>279.000000</ele>
                <time>2013-04-25T10:33:34Z</time>
            </trkpt>
            <trkpt lat="47.340128401" lon="3.725137251">
                <ele>282.000000</ele>
                <time>2013-04-25T10:33:37Z</time>
            </trkpt>
            <trkpt lat="47.339993400" lon="3.725167252">
                <ele>282.000000</ele>
                <time>2013-04-25T10:33:40Z</time>
            </trkpt>
            <trkpt lat="47.339843398" lon="3.725152252">
                <ele>282.000000</ele>
                <time>2013-04-25T10:33:43Z</time>
            </trkpt>
            <trkpt lat="47.339708397" lon="3.725167252">
                <ele>281.000000</ele>
                <time>2013-04-25T10:33:46Z</time>
            </trkpt>
            <trkpt lat="47.339528395" lon="3.725167252">
                <ele>280.000000</ele>
                <time>2013-04-25T10:33:51Z</time>
            </trkpt>
            <trkpt lat="47.339468395" lon="3.725392254">
                <ele>279.000000</ele>
                <time>2013-04-25T10:33:58Z</time>
            </trkpt>
            <trkpt lat="47.339498395" lon="3.725812258">
                <ele>280.000000</ele>
                <time>2013-04-25T10:34:04Z</time>
            </trkpt>
            <trkpt lat="47.339513395" lon="3.726082261">
                <ele>281.000000</ele>
                <time>2013-04-25T10:34:07Z</time>
            </trkpt>
            <trkpt lat="47.339528395" lon="3.726337263">
                <ele>282.000000</ele>
                <time>2013-04-25T10:34:10Z</time>
            </trkpt>
            <trkpt lat="47.339573396" lon="3.726622266">
                <ele>281.000000</ele>
                <time>2013-04-25T10:34:13Z</time>
            </trkpt>
            <trkpt lat="47.339663397" lon="3.726877269">
                <ele>282.000000</ele>
                <time>2013-04-25T10:34:16Z</time>
            </trkpt>
            <trkpt lat="47.339723397" lon="3.727087271">
                <ele>282.000000</ele>
                <time>2013-04-25T10:34:18Z</time>
            </trkpt>
            <trkpt lat="47.339813398" lon="3.727417274">
                <ele>282.000000</ele>
                <time>2013-04-25T10:34:21Z</time>
            </trkpt>
            <trkpt lat="47.339903399" lon="3.727732277">
                <ele>282.000000</ele>
                <time>2013-04-25T10:34:24Z</time>
            </trkpt>
            <trkpt lat="47.339978400" lon="3.727912279">
                <ele>284.000000</ele>
                <time>2013-04-25T10:34:26Z</time>
            </trkpt>
            <trkpt lat="47.340098401" lon="3.728152282">
                <ele>285.000000</ele>
                <time>2013-04-25T10:34:29Z</time>
            </trkpt>
            <trkpt lat="47.340188402" lon="3.728302283">
                <ele>287.000000</ele>
                <time>2013-04-25T10:34:31Z</time>
            </trkpt>
            <trkpt lat="47.340353404" lon="3.728602286">
                <ele>289.000000</ele>
                <time>2013-04-25T10:34:35Z</time>
            </trkpt>
            <trkpt lat="47.340443404" lon="3.728752288">
                <ele>291.000000</ele>
                <time>2013-04-25T10:34:41Z</time>
            </trkpt>
            <trkpt lat="47.340533405" lon="3.728947289">
                <ele>299.000000</ele>
                <time>2013-04-25T10:35:20Z</time>
            </trkpt>
            <trkpt lat="47.340998410" lon="3.729937299">
                <ele>303.000000</ele>
                <time>2013-04-25T10:35:30Z</time>
            </trkpt>
            <trkpt lat="47.341178412" lon="3.730252303">
                <ele>303.000000</ele>
                <time>2013-04-25T10:35:33Z</time>
            </trkpt>
            <trkpt lat="47.341283413" lon="3.730462305">
                <ele>305.000000</ele>
                <time>2013-04-25T10:35:36Z</time>
            </trkpt>
            <trkpt lat="47.341418414" lon="3.730792308">
                <ele>305.000000</ele>
                <time>2013-04-25T10:35:38Z</time>
            </trkpt>
            <trkpt lat="47.341523415" lon="3.731182312">
                <ele>305.000000</ele>
                <time>2013-04-25T10:35:41Z</time>
            </trkpt>
            <trkpt lat="47.341688417" lon="3.731737317">
                <ele>304.000000</ele>
                <time>2013-04-25T10:35:45Z</time>
            </trkpt>
            <trkpt lat="47.341838418" lon="3.732157322">
                <ele>303.000000</ele>
                <time>2013-04-25T10:35:48Z</time>
            </trkpt>
            <trkpt lat="47.342003420" lon="3.732547325">
                <ele>303.000000</ele>
                <time>2013-04-25T10:35:51Z</time>
            </trkpt>
            <trkpt lat="47.342588426" lon="3.733852339">
                <ele>302.000000</ele>
                <time>2013-04-25T10:36:01Z</time>
            </trkpt>
            <trkpt lat="47.343053431" lon="3.734602346">
                <ele>303.000000</ele>
                <time>2013-04-25T10:36:08Z</time>
            </trkpt>
            <trkpt lat="47.343278433" lon="3.734992350">
                <ele>303.000000</ele>
                <time>2013-04-25T10:36:12Z</time>
            </trkpt>
            <trkpt lat="47.343413434" lon="3.735262353">
                <ele>303.000000</ele>
                <time>2013-04-25T10:36:15Z</time>
            </trkpt>
            <trkpt lat="47.343503435" lon="3.735442354">
                <ele>303.000000</ele>
                <time>2013-04-25T10:36:17Z</time>
            </trkpt>
            <trkpt lat="47.343608436" lon="3.735757358">
                <ele>303.000000</ele>
                <time>2013-04-25T10:36:20Z</time>
            </trkpt>
            <trkpt lat="47.343668437" lon="3.735997360">
                <ele>302.000000</ele>
                <time>2013-04-25T10:36:22Z</time>
            </trkpt>
            <trkpt lat="47.343728437" lon="3.736372364">
                <ele>301.000000</ele>
                <time>2013-04-25T10:36:25Z</time>
            </trkpt>
            <trkpt lat="47.343728437" lon="3.736627366">
                <ele>303.000000</ele>
                <time>2013-04-25T10:36:27Z</time>
            </trkpt>
            <trkpt lat="47.343698437" lon="3.737002370">
                <ele>304.000000</ele>
                <time>2013-04-25T10:36:30Z</time>
            </trkpt>
            <trkpt lat="47.343668437" lon="3.737377374">
                <ele>307.000000</ele>
                <time>2013-04-25T10:36:34Z</time>
            </trkpt>
            <trkpt lat="47.343593436" lon="3.737557376">
                <ele>307.000000</ele>
                <time>2013-04-25T10:36:45Z</time>
            </trkpt>
            <trkpt lat="47.343413434" lon="3.737527375">
                <ele>301.000000</ele>
                <time>2013-04-25T10:36:51Z</time>
            </trkpt>
            <trkpt lat="47.342933429" lon="3.737467375">
                <ele>294.000000</ele>
                <time>2013-04-25T10:36:53Z</time>
            </trkpt>
            <trkpt lat="47.342618426" lon="3.737572376">
                <ele>291.000000</ele>
                <time>2013-04-25T10:36:56Z</time>
            </trkpt>
            <trkpt lat="47.342318423" lon="3.737752378">
                <ele>286.000000</ele>
                <time>2013-04-25T10:36:59Z</time>
            </trkpt>
            <trkpt lat="47.341928419" lon="3.737992380">
                <ele>281.000000</ele>
                <time>2013-04-25T10:37:03Z</time>
            </trkpt>
            <trkpt lat="47.341733417" lon="3.738067381">
                <ele>280.000000</ele>
                <time>2013-04-25T10:37:05Z</time>
            </trkpt>
            <trkpt lat="47.341553416" lon="3.738052381">
                <ele>277.000000</ele>
                <time>2013-04-25T10:37:07Z</time>
            </trkpt>
            <trkpt lat="47.341328413" lon="3.737827378">
                <ele>275.000000</ele>
                <time>2013-04-25T10:37:10Z</time>
            </trkpt>
            <trkpt lat="47.341253413" lon="3.737542375">
                <ele>276.000000</ele>
                <time>2013-04-25T10:37:13Z</time>
            </trkpt>
            <trkpt lat="47.341148411" lon="3.737392374">
                <ele>277.000000</ele>
                <time>2013-04-25T10:37:16Z</time>
            </trkpt>
            <trkpt lat="47.340998410" lon="3.737437374">
                <ele>281.000000</ele>
                <time>2013-04-25T10:37:21Z</time>
            </trkpt>
            <trkpt lat="47.340848408" lon="3.737542375">
                <ele>283.000000</ele>
                <time>2013-04-25T10:37:25Z</time>
            </trkpt>
            <trkpt lat="47.340008400" lon="3.738112381">
                <ele>291.000000</ele>
                <time>2013-04-25T10:37:43Z</time>
            </trkpt>
            <trkpt lat="47.339873399" lon="3.738187382">
                <ele>293.000000</ele>
                <time>2013-04-25T10:37:46Z</time>
            </trkpt>
            <trkpt lat="47.339723397" lon="3.738247382">
                <ele>294.000000</ele>
                <time>2013-04-25T10:37:49Z</time>
            </trkpt>
            <trkpt lat="47.339573396" lon="3.738292383">
                <ele>298.000000</ele>
                <time>2013-04-25T10:37:59Z</time>
            </trkpt>
            <trkpt lat="47.339438394" lon="3.738352384">
                <ele>300.000000</ele>
                <time>2013-04-25T10:38:02Z</time>
            </trkpt>
            <trkpt lat="47.339198392" lon="3.738457385">
                <ele>302.000000</ele>
                <time>2013-04-25T10:38:06Z</time>
            </trkpt>
            <trkpt lat="47.338718387" lon="3.738682387">
                <ele>303.000000</ele>
                <time>2013-04-25T10:38:13Z</time>
            </trkpt>
            <trkpt lat="47.338628386" lon="3.738847388">
                <ele>303.000000</ele>
                <time>2013-04-25T10:38:17Z</time>
            </trkpt>
            <trkpt lat="47.338628386" lon="3.739102391">
                <ele>304.000000</ele>
                <time>2013-04-25T10:38:21Z</time>
            </trkpt>
            <trkpt lat="47.338643386" lon="3.739822398">
                <ele>308.000000</ele>
                <time>2013-04-25T10:38:29Z</time>
            </trkpt>
            <trkpt lat="47.338568386" lon="3.740092401">
                <ele>308.000000</ele>
                <time>2013-04-25T10:38:32Z</time>
            </trkpt>
            <trkpt lat="47.338448384" lon="3.740362404">
                <ele>308.000000</ele>
                <time>2013-04-25T10:38:35Z</time>
            </trkpt>
            <trkpt lat="47.338388384" lon="3.740557406">
                <ele>307.000000</ele>
                <time>2013-04-25T10:38:37Z</time>
            </trkpt>
            <trkpt lat="47.338328383" lon="3.740872409">
                <ele>307.000000</ele>
                <time>2013-04-25T10:38:40Z</time>
            </trkpt>
            <trkpt lat="47.338298383" lon="3.741202412">
                <ele>305.000000</ele>
                <time>2013-04-25T10:38:43Z</time>
            </trkpt>
            <trkpt lat="47.338238382" lon="3.741802418">
                <ele>300.000000</ele>
                <time>2013-04-25T10:38:48Z</time>
            </trkpt>
            <trkpt lat="47.338133381" lon="3.742147421">
                <ele>298.000000</ele>
                <time>2013-04-25T10:38:55Z</time>
            </trkpt>
            <trkpt lat="47.337728377" lon="3.742732427">
                <ele>291.000000</ele>
                <time>2013-04-25T10:38:57Z</time>
            </trkpt>
            <trkpt lat="47.337518375" lon="3.742942429">
                <ele>288.000000</ele>
                <time>2013-04-25T10:39:00Z</time>
            </trkpt>
            <trkpt lat="47.337368374" lon="3.742972430">
                <ele>289.000000</ele>
                <time>2013-04-25T10:39:02Z</time>
            </trkpt>
            <trkpt lat="47.337218372" lon="3.742927429">
                <ele>287.000000</ele>
                <time>2013-04-25T10:39:04Z</time>
            </trkpt>
            <trkpt lat="47.336498365" lon="3.742687427">
                <ele>280.000000</ele>
                <time>2013-04-25T10:39:14Z</time>
            </trkpt>
            <trkpt lat="47.336348363" lon="3.742612426">
                <ele>278.000000</ele>
                <time>2013-04-25T10:39:17Z</time>
            </trkpt>
            <trkpt lat="47.336258363" lon="3.742462425">
                <ele>280.000000</ele>
                <time>2013-04-25T10:39:24Z</time>
            </trkpt>
            <trkpt lat="47.336288363" lon="3.742267423">
                <ele>279.000000</ele>
                <time>2013-04-25T10:39:29Z</time>
            </trkpt>
            <trkpt lat="47.336378364" lon="3.741712417">
                <ele>281.000000</ele>
                <time>2013-04-25T10:39:39Z</time>
            </trkpt>
            <trkpt lat="47.336423364" lon="3.741472415">
                <ele>282.000000</ele>
                <time>2013-04-25T10:39:42Z</time>
            </trkpt>
            <trkpt lat="47.336483365" lon="3.741247412">
                <ele>278.000000</ele>
                <time>2013-04-25T10:39:45Z</time>
            </trkpt>
            <trkpt lat="47.336573366" lon="3.740872409">
                <ele>274.000000</ele>
                <time>2013-04-25T10:39:50Z</time>
            </trkpt>
            <trkpt lat="47.336708367" lon="3.740377404">
                <ele>269.000000</ele>
                <time>2013-04-25T10:39:56Z</time>
            </trkpt>
            <trkpt lat="47.336753368" lon="3.740122401">
                <ele>268.000000</ele>
                <time>2013-04-25T10:39:59Z</time>
            </trkpt>
            <trkpt lat="47.336813368" lon="3.739942399">
                <ele>267.000000</ele>
                <time>2013-04-25T10:40:07Z</time>
            </trkpt>
            <trkpt lat="47.336798368" lon="3.739717397">
                <ele>263.000000</ele>
                <time>2013-04-25T10:43:24Z</time>
            </trkpt>
            <trkpt lat="47.336873369" lon="3.739342393">
                <ele>260.000000</ele>
                <time>2013-04-25T10:43:31Z</time>
            </trkpt>
            <trkpt lat="47.336963370" lon="3.738937389">
                <ele>259.000000</ele>
                <time>2013-04-25T10:43:36Z</time>
            </trkpt>
            <trkpt lat="47.337158372" lon="3.737992380">
                <ele>250.000000</ele>
                <time>2013-04-25T10:43:49Z</time>
            </trkpt>
            <trkpt lat="47.337188372" lon="3.737797378">
                <ele>249.000000</ele>
                <time>2013-04-25T10:43:51Z</time>
            </trkpt>
            <trkpt lat="47.337203372" lon="3.737497375">
                <ele>248.000000</ele>
                <time>2013-04-25T10:43:54Z</time>
            </trkpt>
            <trkpt lat="47.337128371" lon="3.737212372">
                <ele>249.000000</ele>
                <time>2013-04-25T10:43:57Z</time>
            </trkpt>
            <trkpt lat="47.337098371" lon="3.737017370">
                <ele>249.000000</ele>
                <time>2013-04-25T10:43:59Z</time>
            </trkpt>
            <trkpt lat="47.337053371" lon="3.736702367">
                <ele>249.000000</ele>
                <time>2013-04-25T10:44:02Z</time>
            </trkpt>
            <trkpt lat="47.337023370" lon="3.736387364">
                <ele>248.000000</ele>
                <time>2013-04-25T10:44:05Z</time>
            </trkpt>
            <trkpt lat="47.337038370" lon="3.736087361">
                <ele>244.000000</ele>
                <time>2013-04-25T10:44:12Z</time>
            </trkpt>
            <trkpt lat="47.337023370" lon="3.735742357">
                <ele>244.000000</ele>
                <time>2013-04-25T10:44:14Z</time>
            </trkpt>
            <trkpt lat="47.336903369" lon="3.735607356">
                <ele>244.000000</ele>
                <time>2013-04-25T10:44:22Z</time>
            </trkpt>
            <trkpt lat="47.336843368" lon="3.735427354">
                <ele>247.000000</ele>
                <time>2013-04-25T10:44:29Z</time>
            </trkpt>
            <trkpt lat="47.336903369" lon="3.735637356">
                <ele>258.000000</ele>
                <time>2013-04-25T10:45:35Z</time>
            </trkpt>
            <trkpt lat="47.337038370" lon="3.735637356">
                <ele>254.000000</ele>
                <time>2013-04-25T10:45:44Z</time>
            </trkpt>
            <trkpt lat="47.337053371" lon="3.735367354">
                <ele>252.000000</ele>
                <time>2013-04-25T10:45:48Z</time>
            </trkpt>
            <trkpt lat="47.337068371" lon="3.735142351">
                <ele>251.000000</ele>
                <time>2013-04-25T10:45:51Z</time>
            </trkpt>
            <trkpt lat="47.336933369" lon="3.735067351">
                <ele>250.000000</ele>
                <time>2013-04-25T10:45:56Z</time>
            </trkpt>
            <trkpt lat="47.336798368" lon="3.735037350">
                <ele>252.000000</ele>
                <time>2013-04-25T10:46:00Z</time>
            </trkpt>
            <trkpt lat="47.336708367" lon="3.734842348">
                <ele>252.000000</ele>
                <time>2013-04-25T10:46:06Z</time>
            </trkpt>
            <trkpt lat="47.336663367" lon="3.734602346">
                <ele>249.000000</ele>
                <time>2013-04-25T10:46:09Z</time>
            </trkpt>
            <trkpt lat="47.336588366" lon="3.734392344">
                <ele>249.000000</ele>
                <time>2013-04-25T10:46:12Z</time>
            </trkpt>
            <trkpt lat="47.336543365" lon="3.734182342">
                <ele>248.000000</ele>
                <time>2013-04-25T10:46:15Z</time>
            </trkpt>
            <trkpt lat="47.336468365" lon="3.733927339">
                <ele>247.000000</ele>
                <time>2013-04-25T10:46:22Z</time>
            </trkpt>
            <trkpt lat="47.336303363" lon="3.733537335">
                <ele>248.000000</ele>
                <time>2013-04-25T10:46:24Z</time>
            </trkpt>
            <trkpt lat="47.336213362" lon="3.733357334">
                <ele>249.000000</ele>
                <time>2013-04-25T10:46:26Z</time>
            </trkpt>
            <trkpt lat="47.336063361" lon="3.733057331">
                <ele>249.000000</ele>
                <time>2013-04-25T10:46:29Z</time>
            </trkpt>
            <trkpt lat="47.335943359" lon="3.732907329">
                <ele>249.000000</ele>
                <time>2013-04-25T10:46:31Z</time>
            </trkpt>
            <trkpt lat="47.335763358" lon="3.732772328">
                <ele>249.000000</ele>
                <time>2013-04-25T10:46:34Z</time>
            </trkpt>
            <trkpt lat="47.335523355" lon="3.732637326">
                <ele>250.000000</ele>
                <time>2013-04-25T10:46:38Z</time>
            </trkpt>
            <trkpt lat="47.335283353" lon="3.732502325">
                <ele>249.000000</ele>
                <time>2013-04-25T10:46:41Z</time>
            </trkpt>
            <trkpt lat="47.335073351" lon="3.732457325">
                <ele>248.000000</ele>
                <time>2013-04-25T10:46:43Z</time>
            </trkpt>
            <trkpt lat="47.334893349" lon="3.732427324">
                <ele>249.000000</ele>
                <time>2013-04-25T10:46:45Z</time>
            </trkpt>
            <trkpt lat="47.334593346" lon="3.732412324">
                <ele>248.000000</ele>
                <time>2013-04-25T10:46:48Z</time>
            </trkpt>
            <trkpt lat="47.334068341" lon="3.732427324">
                <ele>243.000000</ele>
                <time>2013-04-25T10:46:53Z</time>
            </trkpt>
            <trkpt lat="47.333753338" lon="3.732457325">
                <ele>241.000000</ele>
                <time>2013-04-25T10:46:56Z</time>
            </trkpt>
            <trkpt lat="47.332973330" lon="3.732652327">
                <ele>236.000000</ele>
                <time>2013-04-25T10:47:04Z</time>
            </trkpt>
            <trkpt lat="47.332778328" lon="3.732652327">
                <ele>234.000000</ele>
                <time>2013-04-25T10:47:06Z</time>
            </trkpt>
            <trkpt lat="47.332433324" lon="3.732667327">
                <ele>234.000000</ele>
                <time>2013-04-25T10:47:10Z</time>
            </trkpt>
            <trkpt lat="47.332103321" lon="3.732712327">
                <ele>233.000000</ele>
                <time>2013-04-25T10:47:14Z</time>
            </trkpt>
            <trkpt lat="47.331938319" lon="3.732757328">
                <ele>238.000000</ele>
                <time>2013-04-25T10:47:16Z</time>
            </trkpt>
            <trkpt lat="47.331713317" lon="3.732862329">
                <ele>240.000000</ele>
                <time>2013-04-25T10:47:19Z</time>
            </trkpt>
            <trkpt lat="47.331578316" lon="3.732952330">
                <ele>245.000000</ele>
                <time>2013-04-25T10:47:21Z</time>
            </trkpt>
            <trkpt lat="47.331083311" lon="3.733312333">
                <ele>255.000000</ele>
                <time>2013-04-25T10:47:29Z</time>
            </trkpt>
            <trkpt lat="47.330873309" lon="3.733462335">
                <ele>262.000000</ele>
                <time>2013-04-25T10:47:33Z</time>
            </trkpt>
            <trkpt lat="47.330423304" lon="3.733792338">
                <ele>272.000000</ele>
                <time>2013-04-25T10:47:41Z</time>
            </trkpt>
            <trkpt lat="47.330033300" lon="3.734017340">
                <ele>281.000000</ele>
                <time>2013-04-25T10:47:49Z</time>
            </trkpt>
            <trkpt lat="47.329823298" lon="3.734122341">
                <ele>282.000000</ele>
                <time>2013-04-25T10:47:53Z</time>
            </trkpt>
            <trkpt lat="47.329643296" lon="3.734152342">
                <ele>286.000000</ele>
                <time>2013-04-25T10:47:56Z</time>
            </trkpt>
            <trkpt lat="47.329508295" lon="3.734137341">
                <ele>288.000000</ele>
                <time>2013-04-25T10:47:58Z</time>
            </trkpt>
            <trkpt lat="47.329343293" lon="3.734092341">
                <ele>289.000000</ele>
                <time>2013-04-25T10:48:01Z</time>
            </trkpt>
            <trkpt lat="47.329163292" lon="3.734017340">
                <ele>293.000000</ele>
                <time>2013-04-25T10:48:04Z</time>
            </trkpt>
            <trkpt lat="47.329028290" lon="3.733957340">
                <ele>295.000000</ele>
                <time>2013-04-25T10:48:07Z</time>
            </trkpt>
            <trkpt lat="47.328878289" lon="3.733912339">
                <ele>296.000000</ele>
                <time>2013-04-25T10:48:10Z</time>
            </trkpt>
            <trkpt lat="47.328353284" lon="3.733747337">
                <ele>301.000000</ele>
                <time>2013-04-25T10:48:19Z</time>
            </trkpt>
            <trkpt lat="47.328218282" lon="3.733732337">
                <ele>303.000000</ele>
                <time>2013-04-25T10:48:21Z</time>
            </trkpt>
            <trkpt lat="47.328083281" lon="3.733717337">
                <ele>302.000000</ele>
                <time>2013-04-25T10:50:29Z</time>
            </trkpt>
            <trkpt lat="47.327453275" lon="3.733732337">
                <ele>307.000000</ele>
                <time>2013-04-25T10:50:38Z</time>
            </trkpt>
            <trkpt lat="47.327228272" lon="3.733747337">
                <ele>309.000000</ele>
                <time>2013-04-25T10:50:42Z</time>
            </trkpt>
            <trkpt lat="47.326883269" lon="3.733807338">
                <ele>309.000000</ele>
                <time>2013-04-25T10:50:47Z</time>
            </trkpt>
            <trkpt lat="47.326658267" lon="3.733867339">
                <ele>310.000000</ele>
                <time>2013-04-25T10:50:50Z</time>
            </trkpt>
            <trkpt lat="47.326343263" lon="3.733957340">
                <ele>310.000000</ele>
                <time>2013-04-25T10:50:54Z</time>
            </trkpt>
            <trkpt lat="47.326148261" lon="3.733957340">
                <ele>308.000000</ele>
                <time>2013-04-25T10:50:56Z</time>
            </trkpt>
            <trkpt lat="47.325938259" lon="3.733972340">
                <ele>307.000000</ele>
                <time>2013-04-25T10:50:58Z</time>
            </trkpt>
            <trkpt lat="47.325623256" lon="3.734092341">
                <ele>305.000000</ele>
                <time>2013-04-25T10:51:01Z</time>
            </trkpt>
            <trkpt lat="47.325143251" lon="3.734302343">
                <ele>302.000000</ele>
                <time>2013-04-25T10:51:06Z</time>
            </trkpt>
            <trkpt lat="47.324948249" lon="3.734332343">
                <ele>300.000000</ele>
                <time>2013-04-25T10:51:08Z</time>
            </trkpt>
            <trkpt lat="47.324663247" lon="3.734347343">
                <ele>298.000000</ele>
                <time>2013-04-25T10:51:11Z</time>
            </trkpt>
            <trkpt lat="47.323868239" lon="3.734107341">
                <ele>293.000000</ele>
                <time>2013-04-25T10:51:20Z</time>
            </trkpt>
            <trkpt lat="47.323628236" lon="3.733957340">
                <ele>294.000000</ele>
                <time>2013-04-25T10:51:23Z</time>
            </trkpt>
            <trkpt lat="47.323493235" lon="3.733897339">
                <ele>294.000000</ele>
                <time>2013-04-25T10:51:25Z</time>
            </trkpt>
            <trkpt lat="47.323103231" lon="3.733732337">
                <ele>294.000000</ele>
                <time>2013-04-25T10:51:30Z</time>
            </trkpt>
            <trkpt lat="47.322908229" lon="3.733597336">
                <ele>294.000000</ele>
                <time>2013-04-25T10:51:33Z</time>
            </trkpt>
            <trkpt lat="47.322773228" lon="3.733462335">
                <ele>294.000000</ele>
                <time>2013-04-25T10:51:35Z</time>
            </trkpt>
            <trkpt lat="47.322578226" lon="3.733252333">
                <ele>296.000000</ele>
                <time>2013-04-25T10:51:38Z</time>
            </trkpt>
            <trkpt lat="47.322353224" lon="3.732982330">
                <ele>302.000000</ele>
                <time>2013-04-25T10:51:43Z</time>
            </trkpt>
            <trkpt lat="47.322263223" lon="3.732832328">
                <ele>306.000000</ele>
                <time>2013-04-25T10:51:47Z</time>
            </trkpt>
            <trkpt lat="47.322098221" lon="3.732502325">
                <ele>308.000000</ele>
                <time>2013-04-25T10:51:53Z</time>
            </trkpt>
            <trkpt lat="47.322008220" lon="3.732322323">
                <ele>311.000000</ele>
                <time>2013-04-25T10:52:01Z</time>
            </trkpt>
            <trkpt lat="47.321813218" lon="3.731992320">
                <ele>311.000000</ele>
                <time>2013-04-25T10:52:04Z</time>
            </trkpt>
            <trkpt lat="47.321663217" lon="3.732067321">
                <ele>310.000000</ele>
                <time>2013-04-25T10:52:10Z</time>
            </trkpt>
            <trkpt lat="47.321513215" lon="3.732172322">
                <ele>311.000000</ele>
                <time>2013-04-25T10:52:14Z</time>
            </trkpt>
            <trkpt lat="47.321243212" lon="3.732352324">
                <ele>313.000000</ele>
                <time>2013-04-25T10:52:20Z</time>
            </trkpt>
            <trkpt lat="47.321108211" lon="3.732307323">
                <ele>313.000000</ele>
                <time>2013-04-25T10:52:24Z</time>
            </trkpt>
            <trkpt lat="47.320973210" lon="3.732217322">
                <ele>309.000000</ele>
                <time>2013-04-25T10:55:04Z</time>
            </trkpt>
            <trkpt lat="47.320643206" lon="3.732457325">
                <ele>309.000000</ele>
                <time>2013-04-25T10:55:13Z</time>
            </trkpt>
            <trkpt lat="47.320493205" lon="3.732592326">
                <ele>308.000000</ele>
                <time>2013-04-25T10:55:17Z</time>
            </trkpt>
            <trkpt lat="47.320343203" lon="3.732757328">
                <ele>307.000000</ele>
                <time>2013-04-25T10:55:20Z</time>
            </trkpt>
            <trkpt lat="47.319878199" lon="3.733222332">
                <ele>302.000000</ele>
                <time>2013-04-25T10:55:28Z</time>
            </trkpt>
            <trkpt lat="47.319698197" lon="3.733297333">
                <ele>297.000000</ele>
                <time>2013-04-25T10:55:31Z</time>
            </trkpt>
            <trkpt lat="47.319473195" lon="3.733357334">
                <ele>294.000000</ele>
                <time>2013-04-25T10:55:34Z</time>
            </trkpt>
            <trkpt lat="47.319233192" lon="3.733432334">
                <ele>289.000000</ele>
                <time>2013-04-25T10:55:38Z</time>
            </trkpt>
            <trkpt lat="47.319083191" lon="3.733492335">
                <ele>282.000000</ele>
                <time>2013-04-25T10:55:42Z</time>
            </trkpt>
            <trkpt lat="47.318903189" lon="3.733582336">
                <ele>279.000000</ele>
                <time>2013-04-25T10:55:45Z</time>
            </trkpt>
            <trkpt lat="47.318153182" lon="3.733927339">
                <ele>262.000000</ele>
                <time>2013-04-25T10:55:57Z</time>
            </trkpt>
            <trkpt lat="47.318003180" lon="3.734032340">
                <ele>258.000000</ele>
                <time>2013-04-25T10:56:00Z</time>
            </trkpt>
            <trkpt lat="47.317868179" lon="3.734107341">
                <ele>254.000000</ele>
                <time>2013-04-25T10:56:03Z</time>
            </trkpt>
            <trkpt lat="47.317733177" lon="3.734227342">
                <ele>252.000000</ele>
                <time>2013-04-25T10:56:06Z</time>
            </trkpt>
            <trkpt lat="47.317523175" lon="3.734407344">
                <ele>249.000000</ele>
                <time>2013-04-25T10:56:10Z</time>
            </trkpt>
            <trkpt lat="47.317328173" lon="3.734587346">
                <ele>244.000000</ele>
                <time>2013-04-25T10:56:13Z</time>
            </trkpt>
            <trkpt lat="47.317133171" lon="3.734812348">
                <ele>240.000000</ele>
                <time>2013-04-25T10:56:17Z</time>
            </trkpt>
            <trkpt lat="47.316983170" lon="3.734947349">
                <ele>239.000000</ele>
                <time>2013-04-25T10:56:20Z</time>
            </trkpt>
            <trkpt lat="47.316848168" lon="3.735022350">
                <ele>239.000000</ele>
                <time>2013-04-25T10:56:22Z</time>
            </trkpt>
            <trkpt lat="47.316683167" lon="3.735097351">
                <ele>238.000000</ele>
                <time>2013-04-25T10:56:25Z</time>
            </trkpt>
            <trkpt lat="47.316518165" lon="3.735127351">
                <ele>237.000000</ele>
                <time>2013-04-25T10:56:28Z</time>
            </trkpt>
            <trkpt lat="47.316173162" lon="3.735292353">
                <ele>237.000000</ele>
                <time>2013-04-25T10:56:37Z</time>
            </trkpt>
            <trkpt lat="47.315978160" lon="3.735472355">
                <ele>235.000000</ele>
                <time>2013-04-25T10:56:39Z</time>
            </trkpt>
            <trkpt lat="47.315873159" lon="3.735622356">
                <ele>235.000000</ele>
                <time>2013-04-25T10:56:41Z</time>
            </trkpt>
            <trkpt lat="47.315708157" lon="3.735817358">
                <ele>234.000000</ele>
                <time>2013-04-25T10:56:44Z</time>
            </trkpt>
            <trkpt lat="47.314973150" lon="3.736687367">
                <ele>233.000000</ele>
                <time>2013-04-25T10:57:02Z</time>
            </trkpt>
            <trkpt lat="47.314853149" lon="3.736852369">
                <ele>234.000000</ele>
                <time>2013-04-25T10:57:05Z</time>
            </trkpt>
            <trkpt lat="47.314733147" lon="3.737047370">
                <ele>235.000000</ele>
                <time>2013-04-25T10:57:08Z</time>
            </trkpt>
            <trkpt lat="47.314643146" lon="3.737197372">
                <ele>236.000000</ele>
                <time>2013-04-25T10:57:10Z</time>
            </trkpt>
            <trkpt lat="47.314088141" lon="3.738112381">
                <ele>241.000000</ele>
                <time>2013-04-25T10:57:22Z</time>
            </trkpt>
            <trkpt lat="47.313983140" lon="3.738247382">
                <ele>242.000000</ele>
                <time>2013-04-25T10:57:24Z</time>
            </trkpt>
            <trkpt lat="47.313833138" lon="3.738427384">
                <ele>244.000000</ele>
                <time>2013-04-25T10:57:27Z</time>
            </trkpt>
            <trkpt lat="47.313563136" lon="3.738727387">
                <ele>247.000000</ele>
                <time>2013-04-25T10:57:32Z</time>
            </trkpt>
            <trkpt lat="47.313428134" lon="3.738877389">
                <ele>249.000000</ele>
                <time>2013-04-25T10:57:35Z</time>
            </trkpt>
            <trkpt lat="47.313293133" lon="3.739042390">
                <ele>250.000000</ele>
                <time>2013-04-25T10:57:38Z</time>
            </trkpt>
            <trkpt lat="47.313188132" lon="3.739237392">
                <ele>251.000000</ele>
                <time>2013-04-25T10:57:41Z</time>
            </trkpt>
            <trkpt lat="47.313113131" lon="3.739447394">
                <ele>253.000000</ele>
                <time>2013-04-25T10:57:44Z</time>
            </trkpt>
            <trkpt lat="47.313023130" lon="3.739657397">
                <ele>254.000000</ele>
                <time>2013-04-25T10:57:47Z</time>
            </trkpt>
            <trkpt lat="47.312948129" lon="3.739852399">
                <ele>253.000000</ele>
                <time>2013-04-25T10:57:51Z</time>
            </trkpt>
        </trkseg>
    </trk>
</gpx>
